Fountainville, Pennsylvania
Current Conditions -  °F | °C
As of 1:54 AM on Saturday 20 Dec 2014 (Local Time) from KDYL Reporting Station
Overcast Overcast  
Wind Chill: 22°   Ceiling: 2500
Heat Index: 30°   Visibility: 10mi
Dew Point: 22°   Wind: 9mph
Humidity: 72%   Direction: 350°N
Pressure: 30.18"   Gusts: NA
Location:  40.34°N, 75.15°W
Report Text: KDYL 200654Z AUTO 35008KT 10SM OVC025 M01/M06 A3018 RMK AO2 SLP227 T10111056
Loading
Personal Weather Stations






























Interactive Weather Map New forecast layout! Learn more

10-Day Weather Forecast

Advertisements
Track Severe Weather on mobile